Terminal Aerodrome Forecast
Issued by NWS

Home | Current Version | Previous Version | Graphics & Text | Print | Product List | Glossary On
Versions: 1 2 3 4 5 6 7 8 9 10 11 12 13 14 15 16 17 18 19
941
FTUS43 KMPX 222339
TAFAXN
TAF
KAXN 222339Z 2300/2324 17018G26KT P6SM FEW040 SCT080
     FM230200 17014KT P6SM SCT050 BKN090 WS020/18045KT
     FM230600 17015KT 6SM SHRA SCT025 BKN040 WS020/20050KT
      TEMPO 2306/2309 3SM TSRA BKN030CB
     FM230900 18014KT 5SM -RA SCT025 OVC040 WS020/21045KT
      TEMPO 2309/2312 2SM TSRA BKN025CB
     FM231400 20012G20KT P6SM VCSH SCT025 OVC050
     FM232000 21010KT 6SM SHRA BKN080=

USA.gov is the U.S. government's official web portal to all federal, state and local government web resources and services.